sensor_id;sensor_type;location;lat;lon;timestamp;pressure;altitude;pressure_sealevel;temperature;humidity
7930;BME280;4010;42.698;23.124;2023-12-04T00:01:03;118349.16;;;-140.64;83.35
7930;BME280;4010;42.698;23.124;2023-12-04T00:03:31;118349.16;;;-140.64;83.35
7930;BME280;4010;42.698;23.124;2023-12-04T00:05:58;118349.16;;;-140.64;83.16
7930;BME280;4010;42.698;23.124;2023-12-04T00:08:24;118349.16;;;-140.64;82.92
7930;BME280;4010;42.698;23.124;2023-12-04T00:10:51;118349.16;;;-140.64;82.95
7930;BME280;4010;42.698;23.124;2023-12-04T00:13:19;118349.16;;;-140.64;82.07
7930;BME280;4010;42.698;23.124;2023-12-04T00:15:46;118349.16;;;-140.64;81.68
7930;BME280;4010;42.698;23.124;2023-12-04T00:18:12;118349.16;;;-140.64;80.02
7930;BME280;4010;42.698;23.124;2023-12-04T00:20:41;118349.16;;;-140.64;80.09
7930;BME280;4010;42.698;23.124;2023-12-04T00:23:07;118349.16;;;-140.64;81.47
7930;BME280;4010;42.698;23.124;2023-12-04T00:25:34;118349.16;;;-140.64;81.54
7930;BME280;4010;42.698;23.124;2023-12-04T00:28:01;118349.16;;;-140.64;82.24
7930;BME280;4010;42.698;23.124;2023-12-04T00:30:27;118349.16;;;-140.64;81.84
7930;BME280;4010;42.698;23.124;2023-12-04T00:32:54;118349.16;;;-140.64;81.79
7930;BME280;4010;42.698;23.124;2023-12-04T00:35:21;118349.16;;;-140.64;82.16
7930;BME280;4010;42.698;23.124;2023-12-04T00:37:49;118349.16;;;-140.64;82.55
7930;BME280;4010;42.698;23.124;2023-12-04T00:40:16;118349.16;;;-140.64;80.03
7930;BME280;4010;42.698;23.124;2023-12-04T00:42:43;118349.16;;;-140.64;80.64
7930;BME280;4010;42.698;23.124;2023-12-04T00:45:10;118349.16;;;-140.64;81.52
7930;BME280;4010;42.698;23.124;2023-12-04T00:47:36;118349.16;;;-140.64;81.22
7930;BME280;4010;42.698;23.124;2023-12-04T00:50:04;118349.16;;;-140.64;80.53
7930;BME280;4010;42.698;23.124;2023-12-04T00:52:31;118349.16;;;-140.64;80.12
7930;BME280;4010;42.698;23.124;2023-12-04T00:54:59;118349.16;;;-140.64;79.20
7930;BME280;4010;42.698;23.124;2023-12-04T00:57:25;118349.16;;;-140.64;79.26
7930;BME280;4010;42.698;23.124;2023-12-04T00:59:52;118349.16;;;-140.64;78.83
7930;BME280;4010;42.698;23.124;2023-12-04T01:02:19;118349.16;;;-140.64;79.54
7930;BME280;4010;42.698;23.124;2023-12-04T01:04:46;118349.16;;;-140.64;80.81
7930;BME280;4010;42.698;23.124;2023-12-04T01:07:12;118349.16;;;-140.64;80.22
7930;BME280;4010;42.698;23.124;2023-12-04T01:09:39;118349.16;;;-140.64;80.12
7930;BME280;4010;42.698;23.124;2023-12-04T01:12:07;118349.16;;;-140.64;79.74
7930;BME280;4010;42.698;23.124;2023-12-04T01:14:35;118349.16;;;-140.64;79.44
7930;BME280;4010;42.698;23.124;2023-12-04T01:17:03;118349.16;;;-140.64;79.15
7930;BME280;4010;42.698;23.124;2023-12-04T01:19:32;118349.16;;;-140.64;79.60
7930;BME280;4010;42.698;23.124;2023-12-04T01:21:58;118349.16;;;-140.64;76.86
7930;BME280;4010;42.698;23.124;2023-12-04T01:24:25;118349.16;;;-140.64;77.68
7930;BME280;4010;42.698;23.124;2023-12-04T01:26:52;118349.16;;;-140.64;76.87
7930;BME280;4010;42.698;23.124;2023-12-04T01:29:20;118349.16;;;-140.64;78.06
7930;BME280;4010;42.698;23.124;2023-12-04T01:31:47;118349.16;;;-140.64;78.17
7930;BME280;4010;42.698;23.124;2023-12-04T01:34:13;118349.16;;;-140.64;77.53
7930;BME280;4010;42.698;23.124;2023-12-04T01:36:40;118349.16;;;-140.64;76.65
7930;BME280;4010;42.698;23.124;2023-12-04T01:39:06;118349.16;;;-140.64;76.91
7930;BME280;4010;42.698;23.124;2023-12-04T01:41:33;118349.16;;;-140.64;78.15
7930;BME280;4010;42.698;23.124;2023-12-04T01:44:00;118349.16;;;-140.64;78.49
7930;BME280;4010;42.698;23.124;2023-12-04T01:46:28;118349.16;;;-140.64;79.36
7930;BME280;4010;42.698;23.124;2023-12-04T01:48:55;118349.16;;;-140.64;79.52
7930;BME280;4010;42.698;23.124;2023-12-04T01:51:23;118349.16;;;-140.64;78.67
7930;BME280;4010;42.698;23.124;2023-12-04T01:53:50;118349.16;;;-140.64;78.74
7930;BME280;4010;42.698;23.124;2023-12-04T01:56:17;118349.16;;;-140.64;79.36
7930;BME280;4010;42.698;23.124;2023-12-04T01:58:45;118349.16;;;-140.64;80.37
7930;BME280;4010;42.698;23.124;2023-12-04T02:01:12;118349.16;;;-140.64;81.00
7930;BME280;4010;42.698;23.124;2023-12-04T02:03:41;118349.16;;;-140.64;80.24
7930;BME280;4010;42.698;23.124;2023-12-04T02:06:09;118349.16;;;-140.64;79.87
7930;BME280;4010;42.698;23.124;2023-12-04T02:08:36;118349.16;;;-140.64;79.36
7930;BME280;4010;42.698;23.124;2023-12-04T02:11:03;118349.16;;;-140.64;80.56
7930;BME280;4010;42.698;23.124;2023-12-04T02:13:30;118349.16;;;-140.64;79.55
7930;BME280;4010;42.698;23.124;2023-12-04T02:15:58;118349.16;;;-140.64;79.88
7930;BME280;4010;42.698;23.124;2023-12-04T02:18:27;118349.16;;;-140.64;80.50
7930;BME280;4010;42.698;23.124;2023-12-04T02:20:55;118349.16;;;-140.64;80.13
7930;BME280;4010;42.698;23.124;2023-12-04T02:23:22;118349.16;;;-140.64;79.83
7930;BME280;4010;42.698;23.124;2023-12-04T02:25:51;118349.16;;;-140.64;78.41
7930;BME280;4010;42.698;23.124;2023-12-04T02:28:20;118349.16;;;-140.64;80.00
7930;BME280;4010;42.698;23.124;2023-12-04T02:30:48;118349.16;;;-140.64;79.42
7930;BME280;4010;42.698;23.124;2023-12-04T02:33:17;118349.16;;;-140.64;80.78
7930;BME280;4010;42.698;23.124;2023-12-04T02:35:47;118349.16;;;-140.64;80.36
7930;BME280;4010;42.698;23.124;2023-12-04T02:38:14;118349.16;;;-140.64;80.53
7930;BME280;4010;42.698;23.124;2023-12-04T02:40:41;118349.16;;;-140.64;79.71
7930;BME280;4010;42.698;23.124;2023-12-04T02:43:09;118349.16;;;-140.64;80.72
7930;BME280;4010;42.698;23.124;2023-12-04T02:45:36;118349.16;;;-140.64;79.99
7930;BME280;4010;42.698;23.124;2023-12-04T02:48:03;118349.16;;;-140.64;78.86
7930;BME280;4010;42.698;23.124;2023-12-04T02:50:30;118349.16;;;-140.64;79.47
7930;BME280;4010;42.698;23.124;2023-12-04T02:52:56;118349.16;;;-140.64;79.00
7930;BME280;4010;42.698;23.124;2023-12-04T02:55:23;118349.16;;;-140.64;78.95
7930;BME280;4010;42.698;23.124;2023-12-04T02:57:50;118349.16;;;-140.64;78.10
7930;BME280;4010;42.698;23.124;2023-12-04T03:00:18;118349.16;;;-140.64;77.72
7930;BME280;4010;42.698;23.124;2023-12-04T03:02:45;118349.16;;;-140.64;77.09
7930;BME280;4010;42.698;23.124;2023-12-04T03:05:12;118349.16;;;-140.64;76.51
7930;BME280;4010;42.698;23.124;2023-12-04T03:07:39;118349.16;;;-140.64;77.95
7930;BME280;4010;42.698;23.124;2023-12-04T03:10:06;118349.16;;;-140.64;77.60
7930;BME280;4010;42.698;23.124;2023-12-04T03:12:33;118349.16;;;-140.64;77.87
7930;BME280;4010;42.698;23.124;2023-12-04T03:15:00;118349.16;;;-140.64;78.60
7930;BME280;4010;42.698;23.124;2023-12-04T03:17:28;118349.16;;;-140.64;78.92
7930;BME280;4010;42.698;23.124;2023-12-04T03:19:55;118349.16;;;-140.64;79.71
7930;BME280;4010;42.698;23.124;2023-12-04T03:22:21;118349.16;;;-140.64;79.32
7930;BME280;4010;42.698;23.124;2023-12-04T03:24:48;118349.16;;;-140.64;78.95
7930;BME280;4010;42.698;23.124;2023-12-04T03:27:15;118349.16;;;-140.64;78.95
7930;BME280;4010;42.698;23.124;2023-12-04T03:29:42;118349.16;;;-140.64;79.74
7930;BME280;4010;42.698;23.124;2023-12-04T03:32:08;118349.16;;;-140.64;79.45
7930;BME280;4010;42.698;23.124;2023-12-04T03:34:36;118349.16;;;-140.64;80.00
7930;BME280;4010;42.698;23.124;2023-12-04T03:37:03;118349.16;;;-140.64;80.22
7930;BME280;4010;42.698;23.124;2023-12-04T03:39:30;118349.16;;;-140.64;80.57
7930;BME280;4010;42.698;23.124;2023-12-04T03:41:57;118349.16;;;-140.64;81.36
7930;BME280;4010;42.698;23.124;2023-12-04T03:44:23;118349.16;;;-140.64;80.58
7930;BME280;4010;42.698;23.124;2023-12-04T03:46:50;118349.16;;;-140.64;80.73
7930;BME280;4010;42.698;23.124;2023-12-04T03:49:17;118349.16;;;-140.64;81.24
7930;BME280;4010;42.698;23.124;2023-12-04T03:51:45;118349.16;;;-140.64;81.00
7930;BME280;4010;42.698;23.124;2023-12-04T03:54:12;118349.16;;;-140.64;80.83
7930;BME280;4010;42.698;23.124;2023-12-04T03:56:39;118349.16;;;-140.64;80.66
7930;BME280;4010;42.698;23.124;2023-12-04T03:59:06;118349.16;;;-140.64;79.23
7930;BME280;4010;42.698;23.124;2023-12-04T04:01:34;118349.16;;;-140.64;79.20
7930;BME280;4010;42.698;23.124;2023-12-04T04:04:01;118349.16;;;-140.64;78.65
7930;BME280;4010;42.698;23.124;2023-12-04T04:06:28;118349.16;;;-140.64;79.18
7930;BME280;4010;42.698;23.124;2023-12-04T04:08:56;118349.16;;;-140.64;78.86
7930;BME280;4010;42.698;23.124;2023-12-04T04:11:23;118349.16;;;-140.64;78.99
7930;BME280;4010;42.698;23.124;2023-12-04T04:13:49;118349.16;;;-140.64;78.08
7930;BME280;4010;42.698;23.124;2023-12-04T04:16:16;118349.16;;;-140.64;77.73
7930;BME280;4010;42.698;23.124;2023-12-04T04:18:42;118349.16;;;-140.64;78.06
7930;BME280;4010;42.698;23.124;2023-12-04T04:21:09;118349.16;;;-140.64;78.07
7930;BME280;4010;42.698;23.124;2023-12-04T04:23:36;118349.16;;;-140.64;78.95
7930;BME280;4010;42.698;23.124;2023-12-04T04:26:04;118349.16;;;-140.64;77.99
7930;BME280;4010;42.698;23.124;2023-12-04T04:28:31;118349.16;;;-140.64;78.07
7930;BME280;4010;42.698;23.124;2023-12-04T04:30:58;118349.16;;;-140.64;78.58
7930;BME280;4010;42.698;23.124;2023-12-04T04:33:24;118349.16;;;-140.64;79.89
7930;BME280;4010;42.698;23.124;2023-12-04T04:35:51;118349.16;;;-140.64;80.35
7930;BME280;4010;42.698;23.124;2023-12-04T04:38:18;118349.16;;;-140.64;80.83
7930;BME280;4010;42.698;23.124;2023-12-04T04:40:45;118349.16;;;-140.64;80.76
7930;BME280;4010;42.698;23.124;2023-12-04T04:43:13;118349.16;;;-140.64;81.42
7930;BME280;4010;42.698;23.124;2023-12-04T04:45:40;118349.16;;;-140.64;81.54
7930;BME280;4010;42.698;23.124;2023-12-04T04:48:06;118349.16;;;-140.64;81.11
7930;BME280;4010;42.698;23.124;2023-12-04T04:50:33;118349.16;;;-140.64;80.66
7930;BME280;4010;42.698;23.124;2023-12-04T04:53:00;118349.16;;;-140.64;80.81
7930;BME280;4010;42.698;23.124;2023-12-04T04:55:27;118349.16;;;-140.64;81.62
7930;BME280;4010;42.698;23.124;2023-12-04T04:57:54;118349.16;;;-140.64;80.87
7930;BME280;4010;42.698;23.124;2023-12-04T05:00:22;118349.16;;;-140.64;83.06
7930;BME280;4010;42.698;23.124;2023-12-04T05:02:48;118349.16;;;-140.64;83.32
7930;BME280;4010;42.698;23.124;2023-12-04T05:05:15;118349.16;;;-140.64;82.78
7930;BME280;4010;42.698;23.124;2023-12-04T05:07:42;118349.16;;;-140.64;82.32
7930;BME280;4010;42.698;23.124;2023-12-04T05:10:09;118349.16;;;-140.64;81.97
7930;BME280;4010;42.698;23.124;2023-12-04T05:12:36;118349.16;;;-140.64;81.34
7930;BME280;4010;42.698;23.124;2023-12-04T05:15:03;118349.16;;;-140.64;81.36
7930;BME280;4010;42.698;23.124;2023-12-04T05:17:31;118349.16;;;-140.64;81.57
7930;BME280;4010;42.698;23.124;2023-12-04T05:19:58;118349.16;;;-140.64;83.37
7930;BME280;4010;42.698;23.124;2023-12-04T05:22:24;118349.16;;;-140.64;82.90
7930;BME280;4010;42.698;23.124;2023-12-04T05:24:51;118349.16;;;-140.64;82.85
7930;BME280;4010;42.698;23.124;2023-12-04T05:27:17;118349.16;;;-140.64;82.39
7930;BME280;4010;42.698;23.124;2023-12-04T05:29:44;118349.16;;;-140.64;81.90
7930;BME280;4010;42.698;23.124;2023-12-04T05:32:12;118349.16;;;-140.64;81.49
7930;BME280;4010;42.698;23.124;2023-12-04T05:34:40;118349.16;;;-140.64;81.91
7930;BME280;4010;42.698;23.124;2023-12-04T05:37:07;118349.16;;;-140.64;82.90
7930;BME280;4010;42.698;23.124;2023-12-04T05:39:34;118349.16;;;-140.64;83.39
7930;BME280;4010;42.698;23.124;2023-12-04T05:42:01;118349.16;;;-140.64;84.13
7930;BME280;4010;42.698;23.124;2023-12-04T05:44:28;118349.16;;;-140.64;84.07
7930;BME280;4010;42.698;23.124;2023-12-04T05:46:55;118349.16;;;-140.64;84.60
7930;BME280;4010;42.698;23.124;2023-12-04T05:49:21;118349.16;;;-140.64;85.03
7930;BME280;4010;42.698;23.124;2023-12-04T05:51:50;118349.16;;;-140.64;85.09
7930;BME280;4010;42.698;23.124;2023-12-04T05:54:16;118349.16;;;-140.64;85.18
7930;BME280;4010;42.698;23.124;2023-12-04T05:56:43;118349.16;;;-140.64;85.38
7930;BME280;4010;42.698;23.124;2023-12-04T05:59:10;118349.16;;;-140.64;85.48
7930;BME280;4010;42.698;23.124;2023-12-04T06:01:37;118349.16;;;-140.64;85.76
7930;BME280;4010;42.698;23.124;2023-12-04T06:04:03;118349.16;;;-140.64;85.74
7930;BME280;4010;42.698;23.124;2023-12-04T06:06:30;118349.16;;;-140.64;86.08
7930;BME280;4010;42.698;23.124;2023-12-04T06:08:58;118349.16;;;-140.64;86.03
7930;BME280;4010;42.698;23.124;2023-12-04T06:11:25;118349.16;;;-140.64;86.31
7930;BME280;4010;42.698;23.124;2023-12-04T06:13:52;118349.16;;;-140.64;86.12
7930;BME280;4010;42.698;23.124;2023-12-04T06:16:18;118349.16;;;-140.64;86.30
7930;BME280;4010;42.698;23.124;2023-12-04T06:18:45;118349.16;;;-140.64;85.93
7930;BME280;4010;42.698;23.124;2023-12-04T06:21:12;118349.16;;;-140.64;86.35
7930;BME280;4010;42.698;23.124;2023-12-04T06:23:39;118349.16;;;-140.64;85.70
7930;BME280;4010;42.698;23.124;2023-12-04T06:26:09;118349.16;;;-140.64;85.36
7930;BME280;4010;42.698;23.124;2023-12-04T06:28:38;118349.16;;;-140.64;84.09
7930;BME280;4010;42.698;23.124;2023-12-04T06:31:06;118349.16;;;-140.64;83.15
7930;BME280;4010;42.698;23.124;2023-12-04T06:33:33;118349.16;;;-140.64;82.61
7930;BME280;4010;42.698;23.124;2023-12-04T06:36:00;118349.16;;;-140.64;82.70
7930;BME280;4010;42.698;23.124;2023-12-04T06:38:31;118349.16;;;-140.64;82.15
7930;BME280;4010;42.698;23.124;2023-12-04T06:40:59;118349.16;;;-140.64;80.80
7930;BME280;4010;42.698;23.124;2023-12-04T06:43:28;118349.16;;;-140.64;81.52
7930;BME280;4010;42.698;23.124;2023-12-04T06:45:55;118349.16;;;-140.64;80.75
7930;BME280;4010;42.698;23.124;2023-12-04T06:48:24;118349.16;;;-140.64;80.50
7930;BME280;4010;42.698;23.124;2023-12-04T06:50:51;118349.16;;;-140.64;80.12
7930;BME280;4010;42.698;23.124;2023-12-04T06:53:18;118349.16;;;-140.64;79.41
7930;BME280;4010;42.698;23.124;2023-12-04T06:55:45;118349.16;;;-140.64;78.39
7930;BME280;4010;42.698;23.124;2023-12-04T06:58:11;118349.16;;;-140.64;76.84
7930;BME280;4010;42.698;23.124;2023-12-04T07:00:40;118349.16;;;-140.64;76.84
7930;BME280;4010;42.698;23.124;2023-12-04T07:03:06;118349.16;;;-140.64;77.49
7930;BME280;4010;42.698;23.124;2023-12-04T07:05:33;118349.16;;;-140.64;77.42
7930;BME280;4010;42.698;23.124;2023-12-04T07:08:00;118349.16;;;-140.64;77.11
7930;BME280;4010;42.698;23.124;2023-12-04T07:10:28;118349.16;;;-140.64;77.16
7930;BME280;4010;42.698;23.124;2023-12-04T07:12:54;118349.16;;;-140.64;75.42
7930;BME280;4010;42.698;23.124;2023-12-04T07:15:22;118349.16;;;-140.64;77.00
7930;BME280;4010;42.698;23.124;2023-12-04T07:17:50;118349.16;;;-140.64;75.89
7930;BME280;4010;42.698;23.124;2023-12-04T07:20:16;118349.16;;;-140.64;74.28
7930;BME280;4010;42.698;23.124;2023-12-04T07:22:44;118349.16;;;-140.64;76.07
7930;BME280;4010;42.698;23.124;2023-12-04T07:25:11;118349.16;;;-140.64;76.18
7930;BME280;4010;42.698;23.124;2023-12-04T07:27:37;118349.16;;;-140.64;74.95
7930;BME280;4010;42.698;23.124;2023-12-04T07:30:05;118349.16;;;-140.64;75.77
7930;BME280;4010;42.698;23.124;2023-12-04T07:32:32;118349.16;;;-140.64;76.54
7930;BME280;4010;42.698;23.124;2023-12-04T07:35:02;118349.16;;;-140.64;74.80
7930;BME280;4010;42.698;23.124;2023-12-04T07:37:29;118349.16;;;-140.64;74.93
7930;BME280;4010;42.698;23.124;2023-12-04T07:39:57;118349.16;;;-140.64;73.67
7930;BME280;4010;42.698;23.124;2023-12-04T07:42:24;118349.16;;;-140.64;75.93
7930;BME280;4010;42.698;23.124;2023-12-04T07:44:51;118349.16;;;-140.64;73.39
7930;BME280;4010;42.698;23.124;2023-12-04T07:47:18;118349.16;;;-140.64;71.99
7930;BME280;4010;42.698;23.124;2023-12-04T07:49:45;118349.16;;;-140.64;73.18
7930;BME280;4010;42.698;23.124;2023-12-04T07:52:13;118349.16;;;-140.64;73.34
7930;BME280;4010;42.698;23.124;2023-12-04T07:54:40;118349.16;;;-140.64;71.53
7930;BME280;4010;42.698;23.124;2023-12-04T07:57:06;118349.16;;;-140.64;72.12
7930;BME280;4010;42.698;23.124;2023-12-04T07:59:33;118349.16;;;-140.64;71.37
7930;BME280;4010;42.698;23.124;2023-12-04T08:02:00;118349.16;;;-140.64;71.66
7930;BME280;4010;42.698;23.124;2023-12-04T08:04:27;118349.16;;;-140.64;71.24
7930;BME280;4010;42.698;23.124;2023-12-04T08:06:53;118349.16;;;-140.64;72.73
7930;BME280;4010;42.698;23.124;2023-12-04T08:09:22;118349.16;;;-140.64;73.36
7930;BME280;4010;42.698;23.124;2023-12-04T08:11:48;118349.16;;;-140.64;70.39
7930;BME280;4010;42.698;23.124;2023-12-04T08:14:15;118349.16;;;-140.64;68.61
7930;BME280;4010;42.698;23.124;2023-12-04T08:16:42;118349.16;;;-140.64;72.06
7930;BME280;4010;42.698;23.124;2023-12-04T08:19:09;118349.16;;;-140.64;71.13
7930;BME280;4010;42.698;23.124;2023-12-04T08:21:36;118349.16;;;-140.64;70.24
7930;BME280;4010;42.698;23.124;2023-12-04T08:24:03;118349.16;;;-140.64;66.70
7930;BME280;4010;42.698;23.124;2023-12-04T08:26:31;118349.16;;;-140.64;65.98
7930;BME280;4010;42.698;23.124;2023-12-04T08:28:58;118349.16;;;-140.64;67.07
7930;BME280;4010;42.698;23.124;2023-12-04T08:31:25;118349.16;;;-140.64;65.82
7930;BME280;4010;42.698;23.124;2023-12-04T08:33:52;118349.16;;;-140.64;63.88
7930;BME280;4010;42.698;23.124;2023-12-04T08:36:19;118349.16;;;-140.64;62.68
7930;BME280;4010;42.698;23.124;2023-12-04T08:38:46;118349.16;;;-140.64;63.69
7930;BME280;4010;42.698;23.124;2023-12-04T08:41:13;118349.16;;;-140.64;59.96
7930;BME280;4010;42.698;23.124;2023-12-04T08:43:41;118349.16;;;-140.64;57.02
7930;BME280;4010;42.698;23.124;2023-12-04T08:46:12;118349.16;;;-140.64;59.21
7930;BME280;4010;42.698;23.124;2023-12-04T08:48:40;118349.16;;;-140.64;57.86
7930;BME280;4010;42.698;23.124;2023-12-04T08:51:07;118349.16;;;-140.64;57.25
7930;BME280;4010;42.698;23.124;2023-12-04T08:53:34;118349.16;;;-140.64;58.34
7930;BME280;4010;42.698;23.124;2023-12-04T08:56:02;118349.16;;;-140.64;55.71
7930;BME280;4010;42.698;23.124;2023-12-04T08:58:29;118349.16;;;-140.64;57.36
7930;BME280;4010;42.698;23.124;2023-12-04T09:00:57;118349.16;;;-140.64;56.21
7930;BME280;4010;42.698;23.124;2023-12-04T09:03:24;118349.16;;;-140.64;56.23
7930;BME280;4010;42.698;23.124;2023-12-04T09:05:50;118349.16;;;-140.64;54.32
7930;BME280;4010;42.698;23.124;2023-12-04T09:08:17;118349.16;;;-140.64;53.88
7930;BME280;4010;42.698;23.124;2023-12-04T09:10:45;118349.16;;;-140.64;57.54
7930;BME280;4010;42.698;23.124;2023-12-04T09:13:13;118349.16;;;-140.64;56.90
7930;BME280;4010;42.698;23.124;2023-12-04T09:15:40;118349.16;;;-140.64;54.17
7930;BME280;4010;42.698;23.124;2023-12-04T09:18:08;118349.16;;;-140.64;52.90
7930;BME280;4010;42.698;23.124;2023-12-04T09:20:35;118349.16;;;-140.64;53.37
7930;BME280;4010;42.698;23.124;2023-12-04T09:23:02;118349.16;;;-140.64;51.99
7930;BME280;4010;42.698;23.124;2023-12-04T09:25:28;118349.16;;;-140.64;52.73
7930;BME280;4010;42.698;23.124;2023-12-04T09:27:55;118349.16;;;-140.64;48.21
7930;BME280;4010;42.698;23.124;2023-12-04T09:30:22;118349.16;;;-140.64;51.94
7930;BME280;4010;42.698;23.124;2023-12-04T09:32:48;118349.16;;;-140.64;49.68
7930;BME280;4010;42.698;23.124;2023-12-04T09:35:17;118349.16;;;-140.64;48.81
7930;BME280;4010;42.698;23.124;2023-12-04T09:37:44;118349.16;;;-140.64;49.01
7930;BME280;4010;42.698;23.124;2023-12-04T09:40:11;118349.16;;;-140.64;48.38
7930;BME280;4010;42.698;23.124;2023-12-04T09:42:39;118349.16;;;-140.64;48.83
7930;BME280;4010;42.698;23.124;2023-12-04T09:45:07;118349.16;;;-140.64;49.02
7930;BME280;4010;42.698;23.124;2023-12-04T09:47:35;118349.16;;;-140.64;49.63
7930;BME280;4010;42.698;23.124;2023-12-04T09:50:02;118349.16;;;-140.64;47.64
7930;BME280;4010;42.698;23.124;2023-12-04T09:52:30;118349.16;;;-140.64;48.43
7930;BME280;4010;42.698;23.124;2023-12-04T09:54:57;118349.16;;;-140.64;50.34
7930;BME280;4010;42.698;23.124;2023-12-04T09:57:24;118349.16;;;-140.64;48.20
7930;BME280;4010;42.698;23.124;2023-12-04T09:59:52;118349.16;;;-140.64;49.26
7930;BME280;4010;42.698;23.124;2023-12-04T10:02:19;118349.16;;;-140.64;47.61
7930;BME280;4010;42.698;23.124;2023-12-04T10:04:46;118349.16;;;-140.64;47.09
7930;BME280;4010;42.698;23.124;2023-12-04T10:07:13;118349.16;;;-140.64;47.04
7930;BME280;4010;42.698;23.124;2023-12-04T10:09:41;118349.16;;;-140.64;46.88
7930;BME280;4010;42.698;23.124;2023-12-04T10:12:09;118349.16;;;-140.64;48.88
7930;BME280;4010;42.698;23.124;2023-12-04T10:14:36;118349.16;;;-140.64;52.17
7930;BME280;4010;42.698;23.124;2023-12-04T10:17:14;118349.16;;;-140.64;48.00
7930;BME280;4010;42.698;23.124;2023-12-04T10:19:41;118349.16;;;-140.64;50.06
7930;BME280;4010;42.698;23.124;2023-12-04T10:22:08;118349.16;;;-140.64;50.74
7930;BME280;4010;42.698;23.124;2023-12-04T10:24:37;118349.16;;;-140.64;48.23
7930;BME280;4010;42.698;23.124;2023-12-04T10:27:07;118349.16;;;-140.64;48.50
7930;BME280;4010;42.698;23.124;2023-12-04T10:29:41;118349.16;;;-140.64;46.50
7930;BME280;4010;42.698;23.124;2023-12-04T10:32:08;118349.16;;;-140.64;46.78
7930;BME280;4010;42.698;23.124;2023-12-04T10:34:35;118349.16;;;-140.64;47.21
7930;BME280;4010;42.698;23.124;2023-12-04T10:37:03;118349.16;;;-140.64;47.04
7930;BME280;4010;42.698;23.124;2023-12-04T10:39:30;118349.16;;;-140.64;46.61
7930;BME280;4010;42.698;23.124;2023-12-04T10:42:02;118349.16;;;-140.64;46.58
7930;BME280;4010;42.698;23.124;2023-12-04T10:44:31;118349.16;;;-140.64;48.01
7930;BME280;4010;42.698;23.124;2023-12-04T10:47:00;118349.16;;;-140.64;49.86
7930;BME280;4010;42.698;23.124;2023-12-04T10:49:28;118349.16;;;-140.64;47.35
7930;BME280;4010;42.698;23.124;2023-12-04T10:51:58;118349.16;;;-140.64;46.80
7930;BME280;4010;42.698;23.124;2023-12-04T10:54:26;118349.16;;;-140.64;48.83
7930;BME280;4010;42.698;23.124;2023-12-04T10:56:56;118349.16;;;-140.64;46.66
7930;BME280;4010;42.698;23.124;2023-12-04T10:59:27;118349.16;;;-140.64;46.27
7930;BME280;4010;42.698;23.124;2023-12-04T11:02:01;118349.16;;;-140.64;48.18
7930;BME280;4010;42.698;23.124;2023-12-04T11:04:31;118349.16;;;-140.64;48.00
7930;BME280;4010;42.698;23.124;2023-12-04T11:07:02;118349.16;;;-140.64;46.00
7930;BME280;4010;42.698;23.124;2023-12-04T11:09:29;118349.16;;;-140.64;45.52
7930;BME280;4010;42.698;23.124;2023-12-04T11:12:02;118349.16;;;-140.64;46.88
7930;BME280;4010;42.698;23.124;2023-12-04T11:14:42;118349.16;;;-140.64;46.71
7930;BME280;4010;42.698;23.124;2023-12-04T11:17:14;118349.16;;;-140.64;46.39
7930;BME280;4010;42.698;23.124;2023-12-04T11:19:49;118349.16;;;-140.64;46.60
7930;BME280;4010;42.698;23.124;2023-12-04T11:22:17;118349.16;;;-140.64;46.46
7930;BME280;4010;42.698;23.124;2023-12-04T11:24:46;118349.16;;;-140.64;47.08
7930;BME280;4010;42.698;23.124;2023-12-04T11:27:14;118349.16;;;-140.64;47.48
7930;BME280;4010;42.698;23.124;2023-12-04T11:29:41;118349.16;;;-140.64;47.29
7930;BME280;4010;42.698;23.124;2023-12-04T11:32:14;118349.16;;;-140.64;49.17
7930;BME280;4010;42.698;23.124;2023-12-04T11:34:47;118349.16;;;-140.64;49.66
7930;BME280;4010;42.698;23.124;2023-12-04T11:37:14;118349.16;;;-140.64;46.71
7930;BME280;4010;42.698;23.124;2023-12-04T11:39:41;118349.16;;;-140.64;47.16
7930;BME280;4010;42.698;23.124;2023-12-04T11:42:09;118349.16;;;-140.64;47.45
7930;BME280;4010;42.698;23.124;2023-12-04T11:44:36;118349.16;;;-140.64;47.17
7930;BME280;4010;42.698;23.124;2023-12-04T11:47:05;118349.16;;;-140.64;46.75
7930;BME280;4010;42.698;23.124;2023-12-04T11:49:34;118349.16;;;-140.64;49.03
7930;BME280;4010;42.698;23.124;2023-12-04T11:52:03;118349.16;;;-140.64;49.09
7930;BME280;4010;42.698;23.124;2023-12-04T11:54:56;118349.16;;;-140.64;47.89
7930;BME280;4010;42.698;23.124;2023-12-04T11:57:24;118349.16;;;-140.64;48.07
7930;BME280;4010;42.698;23.124;2023-12-04T11:59:51;118349.16;;;-140.64;47.68
7930;BME280;4010;42.698;23.124;2023-12-04T12:02:18;118349.16;;;-140.64;48.12
7930;BME280;4010;42.698;23.124;2023-12-04T12:04:46;118349.16;;;-140.64;47.96
7930;BME280;4010;42.698;23.124;2023-12-04T12:07:14;118349.16;;;-140.64;48.52
7930;BME280;4010;42.698;23.124;2023-12-04T12:09:41;118349.16;;;-140.64;48.67
7930;BME280;4010;42.698;23.124;2023-12-04T12:12:08;118349.16;;;-140.64;48.34
7930;BME280;4010;42.698;23.124;2023-12-04T12:14:35;118349.16;;;-140.64;48.04
7930;BME280;4010;42.698;23.124;2023-12-04T12:17:03;118349.16;;;-140.64;47.96
7930;BME280;4010;42.698;23.124;2023-12-04T12:19:30;118349.16;;;-140.64;49.13
7930;BME280;4010;42.698;23.124;2023-12-04T12:21:58;118349.16;;;-140.64;48.59
7930;BME280;4010;42.698;23.124;2023-12-04T12:24:25;118349.16;;;-140.64;49.37
7930;BME280;4010;42.698;23.124;2023-12-04T12:26:51;118349.16;;;-140.64;48.08
7930;BME280;4010;42.698;23.124;2023-12-04T12:29:18;118349.16;;;-140.64;49.68
7930;BME280;4010;42.698;23.124;2023-12-04T12:31:45;118349.16;;;-140.64;49.26
7930;BME280;4010;42.698;23.124;2023-12-04T12:34:12;118349.16;;;-140.64;50.49
7930;BME280;4010;42.698;23.124;2023-12-04T12:36:40;118349.16;;;-140.64;50.49
7930;BME280;4010;42.698;23.124;2023-12-04T12:39:08;118349.16;;;-140.64;51.17
7930;BME280;4010;42.698;23.124;2023-12-04T12:41:37;118349.16;;;-140.64;51.71